createdAt,value
2023-01-18T00:01:01.281Z,17.80
2023-01-18T00:02:03.068Z,16.20
2023-01-18T00:03:05.442Z,17.02
2023-01-18T00:04:07.281Z,18.35
2023-01-18T00:05:09.536Z,19.38
2023-01-18T00:06:12.053Z,19.67
2023-01-18T00:07:13.766Z,17.63
2023-01-18T00:08:16.482Z,17.90
2023-01-18T00:09:18.177Z,18.08
2023-01-18T00:10:20.787Z,17.70
2023-01-18T00:11:22.444Z,17.90
2023-01-18T00:12:24.253Z,17.08
2023-01-18T00:13:25.844Z,19.10
2023-01-18T00:14:27.611Z,18.67
2023-01-18T00:15:30.527Z,18.77
2023-01-18T00:16:32.367Z,18.63
2023-01-18T00:17:34.302Z,17.38
2023-01-18T00:18:36.229Z,19.73
2023-01-18T00:19:38.105Z,18.35
2023-01-18T00:20:39.839Z,18.80
2023-01-18T00:21:41.705Z,19.88
2023-01-18T00:22:43.410Z,18.55
2023-01-18T00:23:45.086Z,18.80
2023-01-18T00:24:46.735Z,18.27
2023-01-18T00:25:48.379Z,19.75
2023-01-18T00:26:50.331Z,17.08
2023-01-18T00:27:54.021Z,18.00
2023-01-18T00:28:57.133Z,19.27
2023-01-18T00:29:59.588Z,18.77
2023-01-18T00:31:01.564Z,18.17
2023-01-18T00:32:03.895Z,18.73
2023-01-18T00:33:05.746Z,19.70
2023-01-18T00:34:07.593Z,19.85
2023-01-18T00:35:09.702Z,20.25
2023-01-18T00:36:12.223Z,18.90
2023-01-18T00:37:13.903Z,19.45
2023-01-18T00:38:15.758Z,19.50
2023-01-18T00:39:17.468Z,19.15
2023-01-18T00:40:21.054Z,20.00
2023-01-18T00:41:23.117Z,19.05
2023-01-18T00:42:43.547Z,19.65
2023-01-18T00:43:46.515Z,19.90
2023-01-18T00:44:48.246Z,20.83
2023-01-18T00:45:50.009Z,20.20
2023-01-18T00:46:53.347Z,21.02
2023-01-18T00:47:55.161Z,21.58
2023-01-18T00:48:58.955Z,21.23
2023-01-18T00:50:00.779Z,20.10
2023-01-18T00:51:02.882Z,21.63
2023-01-18T00:52:04.963Z,23.02
2023-01-18T00:53:06.625Z,22.17
2023-01-18T00:54:08.492Z,21.50
2023-01-18T00:55:12.341Z,21.13
2023-01-18T00:56:19.539Z,20.30
2023-01-18T00:57:21.268Z,23.35
2023-01-18T00:58:22.959Z,22.73
2023-01-18T00:59:24.566Z,23.23
2023-01-18T01:00:28.960Z,22.40
2023-01-18T01:01:30.747Z,22.10
2023-01-18T01:02:32.596Z,22.05
2023-01-18T01:03:54.745Z,22.58
2023-01-18T01:05:14.973Z,23.70
2023-01-18T01:06:36.418Z,23.85
2023-01-18T01:07:38.060Z,22.50
2023-01-18T01:08:39.682Z,20.30
2023-01-18T01:09:42.288Z,23.52
2023-01-18T01:10:49.827Z,23.55
2023-01-18T01:12:11.137Z,22.88
2023-01-18T01:13:33.083Z,23.20
2023-01-18T01:14:58.052Z,22.63
2023-01-18T01:16:17.973Z,24.13
2023-01-18T01:17:38.237Z,23.05
2023-01-18T01:18:58.643Z,24.48
2023-01-18T01:20:18.979Z,23.08
2023-01-18T01:21:39.486Z,21.85
2023-01-18T01:23:00.118Z,21.60
2023-01-18T01:24:20.656Z,22.67
2023-01-18T01:25:40.631Z,22.13
2023-01-18T01:26:42.833Z,20.88
2023-01-18T01:27:44.528Z,20.60
2023-01-18T01:28:51.108Z,21.20
2023-01-18T01:29:52.859Z,19.10
2023-01-18T01:31:02.194Z,20.42
2023-01-18T01:32:05.107Z,20.20
2023-01-18T01:33:06.804Z,19.70
2023-01-18T01:34:08.486Z,19.80
2023-01-18T01:35:11.683Z,20.90
2023-01-18T01:36:19.688Z,19.50
2023-01-18T01:37:21.359Z,20.45
2023-01-18T01:38:23.085Z,19.95
2023-01-18T01:39:25.045Z,21.80
2023-01-18T01:40:26.768Z,20.33
2023-01-18T01:41:33.934Z,20.10
2023-01-18T01:42:35.601Z,21.52
2023-01-18T01:43:43.344Z,20.70
2023-01-18T01:44:50.237Z,20.05
2023-01-18T01:45:52.909Z,21.17
2023-01-18T01:47:03.083Z,21.75
2023-01-18T01:48:05.051Z,20.48
2023-01-18T01:49:09.633Z,19.55
2023-01-18T01:50:37.469Z,21.98
2023-01-18T01:51:45.100Z,24.23
2023-01-18T01:52:47.940Z,20.65
2023-01-18T01:53:51.337Z,20.15
2023-01-18T01:55:22.695Z,20.10
2023-01-18T01:56:24.442Z,22.02
2023-01-18T01:57:34.659Z,21.73
2023-01-18T01:58:36.761Z,20.50
2023-01-18T01:59:45.106Z,22.60
2023-01-18T02:00:46.926Z,22.40
2023-01-18T02:01:49.688Z,23.35
2023-01-18T02:02:57.632Z,22.85
2023-01-18T02:04:01.532Z,23.27
2023-01-18T02:05:08.116Z,23.00
2023-01-18T02:06:39.374Z,22.90
2023-01-18T02:07:41.849Z,24.65
2023-01-18T02:08:47.441Z,23.17
2023-01-18T02:09:51.756Z,22.88
2023-01-18T02:10:53.761Z,24.33
2023-01-18T02:11:55.811Z,22.55
2023-01-18T02:12:59.445Z,24.67
2023-01-18T02:14:07.502Z,23.85
2023-01-18T02:15:09.754Z,26.55
2023-01-18T02:16:11.518Z,24.67
2023-01-18T02:17:32.766Z,25.90
2023-01-18T02:18:47.133Z,23.88
2023-01-18T02:20:07.565Z,23.98
2023-01-18T02:21:17.272Z,24.52
2023-01-18T02:22:40.392Z,26.20
2023-01-18T02:24:17.490Z,23.58
2023-01-18T02:25:56.667Z,24.88
2023-01-18T02:27:04.812Z,24.17
2023-01-18T02:28:18.142Z,25.42
2023-01-18T02:29:51.853Z,23.75
2023-01-18T02:31:10.859Z,25.10
2023-01-18T02:32:27.865Z,25.75
2023-01-18T02:33:47.175Z,24.13
2023-01-18T02:35:10.818Z,24.90
2023-01-18T02:36:27.742Z,28.15
2023-01-18T02:37:53.302Z,25.15
2023-01-18T02:38:58.571Z,26.80
2023-01-18T02:40:08.000Z,26.60
2023-01-18T02:41:45.452Z,25.70
2023-01-18T02:43:07.391Z,27.10
2023-01-18T02:44:27.836Z,28.50
2023-01-18T02:46:04.288Z,27.35
2023-01-18T02:47:08.036Z,29.73
2023-01-18T02:48:10.656Z,28.85
2023-01-18T02:49:20.305Z,31.23
2023-01-18T02:50:25.718Z,32.58
2023-01-18T02:51:27.481Z,30.40
2023-01-18T02:52:39.041Z,30.13
2023-01-18T02:53:44.613Z,32.10
2023-01-18T02:54:46.364Z,30.45
2023-01-18T02:55:56.735Z,30.25
2023-01-18T02:56:59.881Z,28.80
2023-01-18T02:58:08.465Z,30.70
2023-01-18T02:59:16.242Z,29.92
2023-01-18T03:00:21.067Z,30.75
2023-01-18T03:01:30.936Z,29.73
2023-01-18T03:02:32.788Z,28.85
2023-01-18T03:03:35.433Z,29.42
2023-01-18T03:04:43.822Z,27.92
2023-01-18T03:05:47.264Z,27.00
2023-01-18T03:06:57.618Z,30.25
2023-01-18T03:08:09.492Z,28.30
2023-01-18T03:09:18.463Z,25.17
2023-01-18T03:10:21.497Z,25.65
2023-01-18T03:11:35.411Z,24.60
2023-01-18T03:12:53.105Z,22.80
2023-01-18T03:14:27.739Z,20.27
2023-01-18T03:15:48.229Z,20.92
2023-01-18T03:17:24.576Z,22.63
2023-01-18T03:19:00.446Z,21.75
2023-01-18T03:20:08.639Z,24.35
2023-01-18T03:21:10.558Z,24.08
2023-01-18T03:22:12.246Z,24.08
2023-01-18T03:23:38.128Z,24.10
2023-01-18T03:24:41.403Z,22.77
2023-01-18T03:25:46.142Z,23.75
2023-01-18T03:26:53.508Z,24.58
2023-01-18T03:28:16.359Z,23.80
2023-01-18T03:29:39.321Z,23.10
2023-01-18T03:31:00.793Z,23.83
2023-01-18T03:32:29.917Z,21.40
2023-01-18T03:33:45.936Z,22.15
2023-01-18T03:35:03.524Z,21.77
2023-01-18T03:36:10.219Z,20.95
2023-01-18T03:37:16.903Z,20.45
2023-01-18T03:38:20.471Z,20.05
2023-01-18T03:39:47.595Z,19.58
2023-01-18T03:40:50.367Z,19.17
2023-01-18T03:41:57.431Z,19.70
2023-01-18T03:43:14.942Z,19.10
2023-01-18T03:44:23.032Z,17.98
2023-01-18T03:45:28.759Z,20.15
2023-01-18T03:46:32.845Z,21.05
2023-01-18T03:47:35.365Z,20.02
2023-01-18T03:48:37.380Z,19.08
2023-01-18T03:49:39.243Z,19.10
2023-01-18T03:50:49.965Z,18.90
2023-01-18T03:51:54.523Z,19.00
2023-01-18T03:53:02.552Z,18.73
2023-01-18T03:54:16.402Z,19.75
2023-01-18T03:55:25.406Z,20.38
2023-01-18T03:56:40.850Z,19.98
2023-01-18T03:57:50.805Z,22.48
2023-01-18T03:58:57.589Z,23.40
2023-01-18T04:00:01.528Z,25.08
2023-01-18T04:01:04.462Z,24.80
2023-01-18T04:02:07.581Z,24.13
2023-01-18T04:03:09.276Z,26.83
2023-01-18T04:04:11.357Z,28.33
2023-01-18T04:05:13.440Z,27.10
2023-01-18T04:06:15.222Z,28.08
2023-01-18T04:07:16.893Z,28.83
2023-01-18T04:08:21.972Z,27.92
2023-01-18T04:09:25.214Z,28.67
2023-01-18T04:10:27.065Z,29.85
2023-01-18T04:11:28.870Z,28.95
2023-01-18T04:12:31.540Z,29.95
2023-01-18T04:13:33.239Z,27.90
2023-01-18T04:14:34.882Z,30.23
2023-01-18T04:15:36.592Z,30.33
2023-01-18T04:16:38.220Z,28.90
2023-01-18T04:17:40.078Z,29.05
2023-01-18T04:18:41.933Z,27.70
2023-01-18T04:19:43.733Z,27.83
2023-01-18T04:20:45.365Z,27.40
2023-01-18T04:21:47.073Z,27.02
2023-01-18T04:22:53.262Z,29.25
2023-01-18T04:23:54.921Z,25.50
2023-01-18T04:24:56.659Z,25.77
2023-01-18T04:25:58.470Z,28.88
2023-01-18T04:27:00.113Z,29.23
2023-01-18T04:28:01.774Z,28.85
2023-01-18T04:29:03.938Z,28.35
2023-01-18T04:30:06.368Z,28.10
2023-01-18T04:31:08.394Z,30.25
2023-01-18T04:32:10.097Z,29.08
2023-01-18T04:33:11.887Z,27.67
2023-01-18T04:34:13.561Z,31.30
2023-01-18T04:35:15.605Z,30.05
2023-01-18T04:36:18.415Z,28.65
2023-01-18T04:37:20.198Z,28.52
2023-01-18T04:38:22.886Z,27.40
2023-01-18T04:39:25.160Z,26.75
2023-01-18T04:40:26.905Z,25.90
2023-01-18T04:41:28.735Z,26.05
2023-01-18T04:42:30.548Z,25.77
2023-01-18T04:43:32.315Z,26.73
2023-01-18T04:44:33.937Z,25.25
2023-01-18T04:45:35.640Z,28.00
2023-01-18T04:46:40.305Z,25.48
2023-01-18T04:47:42.894Z,26.70
2023-01-18T04:48:44.726Z,28.17
2023-01-18T04:49:46.328Z,26.38
2023-01-18T04:50:48.536Z,28.95
2023-01-18T04:51:50.315Z,29.95
2023-01-18T04:52:52.141Z,29.30
2023-01-18T04:53:54.175Z,28.65
2023-01-18T04:54:55.808Z,27.75
2023-01-18T04:55:58.797Z,29.58
2023-01-18T04:57:00.555Z,28.90
2023-01-18T04:58:02.524Z,28.67
2023-01-18T04:59:04.535Z,30.40
2023-01-18T05:00:08.846Z,29.08
2023-01-18T05:01:14.353Z,30.90
2023-01-18T05:02:16.309Z,29.40
2023-01-18T05:03:18.041Z,32.20
2023-01-18T05:04:20.222Z,32.22
2023-01-18T05:05:22.231Z,31.02
2023-01-18T05:06:24.629Z,31.15
2023-01-18T05:07:27.697Z,32.22
2023-01-18T05:08:29.616Z,32.17
2023-01-18T05:09:31.449Z,32.20
2023-01-18T05:10:33.756Z,31.15
2023-01-18T05:11:35.313Z,32.97
2023-01-18T05:12:37.474Z,32.60
2023-01-18T05:13:40.690Z,29.48
2023-01-18T05:14:42.493Z,32.35
2023-01-18T05:15:44.153Z,30.30
2023-01-18T05:16:45.864Z,31.20
2023-01-18T05:17:47.598Z,29.00
2023-01-18T05:18:49.585Z,28.05
2023-01-18T05:19:51.597Z,29.27
2023-01-18T05:20:53.472Z,32.30
2023-01-18T05:21:55.108Z,33.60
2023-01-18T05:22:57.326Z,30.95
2023-01-18T05:23:59.625Z,36.15
2023-01-18T05:25:02.008Z,34.55
2023-01-18T05:26:04.796Z,33.53
2023-01-18T05:27:06.499Z,32.05
2023-01-18T05:28:09.314Z,31.25
2023-01-18T05:29:11.004Z,32.85
2023-01-18T05:30:12.831Z,31.42
2023-01-18T05:31:16.215Z,32.38
2023-01-18T05:32:17.921Z,31.20
2023-01-18T05:33:21.391Z,33.15
2023-01-18T05:34:23.090Z,35.17
2023-01-18T05:35:24.773Z,39.47
2023-01-18T05:36:30.630Z,36.92
2023-01-18T05:38:01.313Z,32.55
2023-01-18T05:39:03.144Z,38.40
2023-01-18T05:40:05.313Z,26.73
2023-01-18T05:41:07.343Z,33.55
2023-01-18T05:42:09.020Z,36.70
2023-01-18T05:43:11.116Z,29.52
2023-01-18T05:44:13.194Z,32.38
2023-01-18T05:45:15.002Z,33.70
2023-01-18T05:46:16.881Z,35.85
2023-01-18T05:47:18.652Z,34.15
2023-01-18T05:48:21.094Z,31.67
2023-01-18T05:49:23.067Z,33.80
2023-01-18T05:50:24.821Z,30.52
2023-01-18T05:51:26.688Z,38.95
2023-01-18T05:52:28.560Z,33.88
2023-01-18T05:53:30.199Z,32.40
2023-01-18T05:54:31.777Z,42.83
2023-01-18T05:55:33.670Z,35.47
2023-01-18T05:56:35.392Z,33.15
2023-01-18T05:57:37.188Z,33.97
2023-01-18T05:58:38.983Z,32.30
2023-01-18T05:59:40.787Z,34.08
2023-01-18T06:00:42.598Z,32.63
2023-01-18T06:01:44.284Z,29.27
2023-01-18T06:02:46.056Z,31.77
2023-01-18T06:03:47.726Z,29.75
2023-01-18T06:04:49.369Z,31.38
2023-01-18T06:05:51.590Z,29.33
2023-01-18T06:06:53.937Z,31.88
2023-01-18T06:07:55.533Z,32.83
2023-01-18T06:08:57.350Z,29.98
2023-01-18T06:09:59.202Z,32.83
2023-01-18T06:11:01.133Z,31.42
2023-01-18T06:12:03.474Z,31.67
2023-01-18T06:13:05.882Z,29.52
2023-01-18T06:14:07.518Z,28.33
2023-01-18T06:15:10.742Z,27.80
2023-01-18T06:16:12.440Z,27.20
2023-01-18T06:17:14.317Z,30.58
2023-01-18T06:18:16.031Z,27.63
2023-01-18T06:19:17.946Z,27.10
2023-01-18T06:20:19.748Z,28.60
2023-01-18T06:21:21.575Z,29.45
2023-01-18T06:22:24.050Z,30.05
2023-01-18T06:23:25.871Z,31.05
2023-01-18T06:24:27.670Z,33.15
2023-01-18T06:25:29.365Z,29.13
2023-01-18T06:26:31.299Z,28.17
2023-01-18T06:27:32.975Z,28.77
2023-01-18T06:28:34.648Z,26.73
2023-01-18T06:29:36.281Z,29.55
2023-01-18T06:30:38.966Z,28.35
2023-01-18T06:31:41.302Z,28.85
2023-01-18T06:32:43.094Z,28.25
2023-01-18T06:33:45.130Z,30.55
2023-01-18T06:34:46.762Z,31.90
2023-01-18T06:35:49.031Z,33.63
2023-01-18T06:36:50.687Z,32.22
2023-01-18T06:37:52.524Z,28.75
2023-01-18T06:38:54.204Z,27.38
2023-01-18T06:39:55.885Z,28.33
2023-01-18T06:40:57.843Z,27.48
2023-01-18T06:41:59.640Z,29.92
2023-01-18T06:43:01.693Z,30.70
2023-01-18T06:44:03.912Z,30.02
2023-01-18T06:45:06.107Z,30.15
2023-01-18T06:46:09.387Z,29.58
2023-01-18T06:47:11.180Z,28.67
2023-01-18T06:48:13.039Z,30.70
2023-01-18T06:49:15.037Z,28.13
2023-01-18T06:50:17.388Z,25.92
2023-01-18T06:51:20.509Z,26.88
2023-01-18T06:52:22.592Z,28.70
2023-01-18T06:53:24.962Z,27.85
2023-01-18T06:54:26.634Z,27.38
2023-01-18T06:55:28.352Z,27.73
2023-01-18T06:56:30.634Z,28.70
2023-01-18T06:57:32.411Z,28.70
2023-01-18T06:58:34.585Z,28.67
2023-01-18T06:59:36.274Z,27.60
2023-01-18T07:00:38.828Z,27.98
2023-01-18T07:01:40.598Z,31.48
2023-01-18T07:02:42.473Z,31.20
2023-01-18T07:03:44.243Z,29.98
2023-01-18T07:04:46.109Z,33.13
2023-01-18T07:05:48.130Z,30.88
2023-01-18T07:06:49.822Z,33.58
2023-01-18T07:07:51.584Z,31.88
2023-01-18T07:08:53.302Z,33.75
2023-01-18T07:09:55.060Z,32.10
2023-01-18T07:10:57.626Z,33.65
2023-01-18T07:11:59.943Z,33.95
2023-01-18T07:13:01.827Z,33.45
2023-01-18T07:14:03.726Z,32.85
2023-01-18T07:15:20.832Z,31.80
2023-01-18T07:16:23.673Z,30.77
2023-01-18T07:17:25.530Z,32.47
2023-01-18T07:18:28.091Z,31.45
2023-01-18T07:19:30.013Z,32.35
2023-01-18T07:20:32.011Z,36.83
2023-01-18T07:21:33.899Z,30.00
2023-01-18T07:22:35.615Z,30.63
2023-01-18T07:23:39.626Z,32.08
2023-01-18T07:24:41.376Z,32.42
2023-01-18T07:25:43.026Z,31.20
2023-01-18T07:26:44.734Z,29.58
2023-01-18T07:27:48.958Z,35.03
2023-01-18T07:28:51.354Z,34.28
2023-01-18T07:29:52.983Z,31.00
2023-01-18T07:30:54.690Z,28.25
2023-01-18T07:31:56.583Z,31.58
2023-01-18T07:32:59.285Z,32.92
2023-01-18T07:34:01.492Z,29.48
2023-01-18T07:35:03.309Z,27.70
2023-01-18T07:36:07.482Z,27.73
2023-01-18T07:37:09.482Z,28.08
2023-01-18T07:38:11.108Z,26.75
2023-01-18T07:39:12.896Z,23.45
2023-01-18T07:40:15.468Z,26.52
2023-01-18T07:41:17.790Z,27.17
2023-01-18T07:42:19.454Z,25.58
2023-01-18T07:43:21.194Z,28.30
2023-01-18T07:44:23.283Z,27.30
2023-01-18T07:45:25.291Z,26.42
2023-01-18T07:46:27.594Z,22.60
2023-01-18T07:47:29.266Z,25.95
2023-01-18T07:48:31.830Z,24.67
2023-01-18T07:49:33.666Z,25.05
2023-01-18T07:50:35.531Z,23.60
2023-01-18T07:51:37.401Z,22.85
2023-01-18T07:52:40.504Z,29.35
2023-01-18T07:53:42.298Z,25.90
2023-01-18T07:54:43.964Z,24.45
2023-01-18T07:55:46.093Z,22.45
2023-01-18T07:56:47.744Z,22.40
2023-01-18T07:57:49.617Z,24.40
2023-01-18T07:58:52.671Z,24.48
2023-01-18T07:59:54.951Z,36.80
2023-01-18T08:01:09.950Z,26.40
2023-01-18T08:02:13.304Z,25.20
2023-01-18T08:03:17.319Z,25.35
2023-01-18T08:04:19.121Z,23.63
2023-01-18T08:05:24.095Z,22.30
2023-01-18T08:06:27.366Z,21.98
2023-01-18T08:07:32.635Z,18.75
2023-01-18T08:08:36.507Z,16.45
2023-01-18T08:09:38.347Z,19.00
2023-01-18T08:10:41.094Z,21.50
2023-01-18T08:11:42.883Z,20.42
2023-01-18T08:12:44.562Z,20.23
2023-01-18T08:13:48.976Z,17.52
2023-01-18T08:14:50.843Z,20.17
2023-01-18T08:15:53.547Z,21.73
2023-01-18T08:16:55.578Z,20.65
2023-01-18T08:17:57.388Z,18.83
2023-01-18T08:18:59.081Z,21.45
2023-01-18T08:20:00.753Z,18.67
2023-01-18T08:21:02.490Z,18.92
2023-01-18T08:22:04.242Z,18.63
2023-01-18T08:23:06.206Z,17.92
2023-01-18T08:24:08.084Z,17.67
2023-01-18T08:25:10.099Z,18.00
2023-01-18T08:26:13.742Z,19.08
2023-01-18T08:27:16.952Z,16.83
2023-01-18T08:28:19.074Z,15.75
2023-01-18T08:29:20.831Z,17.10
2023-01-18T08:30:23.738Z,17.67
2023-01-18T08:31:25.844Z,15.82
2023-01-18T08:32:27.970Z,14.95
2023-01-18T08:33:29.952Z,15.32
2023-01-18T08:34:31.652Z,17.17
2023-01-18T08:35:39.277Z,16.42
2023-01-18T08:36:41.049Z,15.25
2023-01-18T08:37:44.536Z,16.55
2023-01-18T08:38:49.481Z,16.30
2023-01-18T08:39:51.275Z,18.23
2023-01-18T08:40:52.997Z,17.08
2023-01-18T08:41:54.871Z,14.60
2023-01-18T08:43:01.592Z,13.20
2023-01-18T08:44:03.362Z,13.25
2023-01-18T08:45:05.658Z,13.98
2023-01-18T08:46:07.409Z,14.00
2023-01-18T08:47:09.270Z,14.48
2023-01-18T08:48:11.562Z,13.27
2023-01-18T08:49:13.889Z,14.18
2023-01-18T08:50:15.826Z,14.30
2023-01-18T08:51:22.876Z,12.32
2023-01-18T08:52:24.721Z,11.60
2023-01-18T08:53:26.393Z,14.82
2023-01-18T08:54:28.572Z,13.15
2023-01-18T08:55:30.833Z,11.15
2023-01-18T08:56:33.402Z,12.90
2023-01-18T08:57:35.228Z,11.65
2023-01-18T08:58:37.002Z,10.65
2023-01-18T08:59:38.751Z,11.38
2023-01-18T09:00:40.534Z,11.07
2023-01-18T09:01:42.359Z,9.48
2023-01-18T09:02:44.285Z,9.90
2023-01-18T09:03:48.012Z,9.65
2023-01-18T09:04:49.836Z,10.88
2023-01-18T09:05:51.588Z,11.45
2023-01-18T09:06:53.366Z,14.25
2023-01-18T09:07:55.903Z,10.30
2023-01-18T09:08:59.750Z,12.98
2023-01-18T09:10:01.443Z,20.60
2023-01-18T09:11:09.718Z,22.20
2023-01-18T09:12:12.837Z,28.42
2023-01-18T09:13:14.739Z,12.75
2023-01-18T09:14:16.930Z,13.00
2023-01-18T09:15:19.240Z,10.63
2023-01-18T09:16:22.580Z,9.57
2023-01-18T09:17:24.688Z,11.90
2023-01-18T09:18:26.640Z,11.52
2023-01-18T09:19:28.500Z,11.60
2023-01-18T09:20:30.332Z,9.00
2023-01-18T09:21:32.514Z,7.40
2023-01-18T09:22:34.194Z,6.15
2023-01-18T09:23:40.351Z,8.15
2023-01-18T09:24:43.095Z,8.00
2023-01-18T09:25:44.970Z,9.35
2023-01-18T09:26:51.044Z,9.90
2023-01-18T09:27:52.841Z,9.20
2023-01-18T09:28:54.612Z,8.00
2023-01-18T09:29:56.334Z,6.32
2023-01-18T09:31:06.071Z,9.30
2023-01-18T09:32:10.786Z,7.75
2023-01-18T09:33:12.549Z,7.88
2023-01-18T09:34:19.262Z,6.65
2023-01-18T09:35:21.555Z,7.25
2023-01-18T09:36:26.845Z,7.63
2023-01-18T09:37:28.791Z,7.47
2023-01-18T09:38:31.877Z,9.13
2023-01-18T09:39:50.446Z,10.52
2023-01-18T09:40:54.140Z,10.45
2023-01-18T09:42:02.024Z,12.00
2023-01-18T09:43:03.874Z,9.38
2023-01-18T09:44:16.776Z,10.50
2023-01-18T09:45:29.260Z,10.02
2023-01-18T09:46:35.984Z,10.82
2023-01-18T09:47:46.377Z,9.68
2023-01-18T09:49:00.350Z,10.27
2023-01-18T09:50:18.705Z,10.95
2023-01-18T09:51:28.126Z,9.38
2023-01-18T09:52:32.490Z,10.13
2023-01-18T09:53:43.167Z,11.27
2023-01-18T09:54:55.085Z,10.32
2023-01-18T09:56:07.529Z,14.52
2023-01-18T09:57:15.451Z,15.07
2023-01-18T09:58:55.968Z,11.90
2023-01-18T09:59:59.597Z,11.50
2023-01-18T10:01:06.742Z,22.67
2023-01-18T10:02:41.164Z,26.42
2023-01-18T10:03:50.518Z,15.85
2023-01-18T10:05:02.093Z,15.25
2023-01-18T10:06:11.247Z,16.58
2023-01-18T10:07:16.973Z,14.15
2023-01-18T10:08:25.493Z,13.55
2023-01-18T10:09:30.911Z,13.38
2023-01-18T10:10:38.340Z,13.27
2023-01-18T10:11:48.282Z,11.50
2023-01-18T10:13:20.350Z,11.77
2023-01-18T10:14:48.980Z,9.55
2023-01-18T10:15:51.025Z,9.48
2023-01-18T10:17:00.378Z,10.68
2023-01-18T10:18:02.338Z,11.20
2023-01-18T10:19:04.309Z,10.48
2023-01-18T10:20:35.706Z,10.77
2023-01-18T10:22:07.815Z,10.68
2023-01-18T10:23:31.349Z,11.88
2023-01-18T10:24:45.656Z,10.57
2023-01-18T10:25:53.502Z,10.20
2023-01-18T10:27:10.866Z,10.43
2023-01-18T10:28:48.904Z,9.95
2023-01-18T10:30:06.160Z,10.70
2023-01-18T10:31:32.613Z,9.93
2023-01-18T10:32:36.292Z,10.07
2023-01-18T10:33:42.129Z,10.45
2023-01-18T10:34:51.513Z,9.88
2023-01-18T10:36:00.841Z,11.85
2023-01-18T10:37:17.337Z,11.27
2023-01-18T10:38:23.154Z,10.55
2023-01-18T10:39:49.613Z,10.85
2023-01-18T10:41:02.310Z,9.68
2023-01-18T10:42:13.573Z,8.48
2023-01-18T10:43:17.366Z,8.60
2023-01-18T10:44:19.067Z,9.55
2023-01-18T10:45:25.110Z,9.70
2023-01-18T10:46:28.177Z,10.60
2023-01-18T10:47:29.981Z,9.95
2023-01-18T10:48:34.174Z,10.65
2023-01-18T10:49:44.127Z,10.27
2023-01-18T10:50:53.382Z,11.10
2023-01-18T10:51:55.323Z,11.10
2023-01-18T10:52:57.457Z,12.38
2023-01-18T10:53:59.909Z,12.48
2023-01-18T10:55:07.530Z,16.42
2023-01-18T10:56:22.931Z,15.23
2023-01-18T10:57:30.573Z,11.05
2023-01-18T10:58:41.399Z,10.05
2023-01-18T10:59:43.292Z,9.18
2023-01-18T11:00:54.236Z,8.80
2023-01-18T11:01:58.517Z,11.38
2023-01-18T11:03:03.736Z,10.10
2023-01-18T11:04:18.367Z,9.18
2023-01-18T11:05:40.298Z,10.50
2023-01-18T11:06:53.834Z,9.98
2023-01-18T11:08:21.566Z,13.05
2023-01-18T11:09:55.739Z,10.43
2023-01-18T11:10:59.135Z,10.75
2023-01-18T11:12:42.238Z,10.65
2023-01-18T11:13:47.184Z,7.75
2023-01-18T11:14:48.945Z,8.18
2023-01-18T11:16:21.412Z,8.07
2023-01-18T11:17:23.281Z,6.85
2023-01-18T11:18:24.910Z,7.10
2023-01-18T11:19:26.746Z,6.78
2023-01-18T11:20:48.110Z,6.60
2023-01-18T11:21:51.993Z,6.43
2023-01-18T11:23:16.128Z,6.68
2023-01-18T11:24:24.820Z,6.50
2023-01-18T11:25:34.791Z,8.05
2023-01-18T11:27:10.684Z,8.60
2023-01-18T11:28:29.366Z,9.05
2023-01-18T11:29:42.683Z,7.80
2023-01-18T11:30:52.375Z,6.50
2023-01-18T11:31:55.413Z,6.38
2023-01-18T11:33:00.417Z,5.80
2023-01-18T11:34:06.345Z,6.13
2023-01-18T11:35:10.119Z,7.00
2023-01-18T11:36:11.901Z,5.43
2023-01-18T11:37:34.577Z,7.30
2023-01-18T11:38:36.277Z,6.22
2023-01-18T11:39:38.159Z,6.00
2023-01-18T11:40:39.870Z,5.35
2023-01-18T11:41:41.511Z,5.75
2023-01-18T11:42:43.340Z,6.30
2023-01-18T11:44:13.818Z,6.22
2023-01-18T11:45:27.132Z,7.95
2023-01-18T11:46:36.783Z,7.15
2023-01-18T11:48:13.113Z,5.70
2023-01-18T11:49:30.089Z,5.57
2023-01-18T11:50:55.227Z,6.15
2023-01-18T11:52:05.218Z,6.10
2023-01-18T11:53:21.492Z,5.90
2023-01-18T11:54:34.612Z,5.85
2023-01-18T11:55:56.257Z,5.90
2023-01-18T11:57:03.191Z,6.22
2023-01-18T11:58:17.034Z,5.35
2023-01-18T11:59:35.161Z,6.35
2023-01-18T12:00:51.799Z,6.53
2023-01-18T12:02:12.063Z,6.50
2023-01-18T12:03:34.086Z,6.65
2023-01-18T12:05:03.022Z,6.75
2023-01-18T12:06:18.075Z,5.22
2023-01-18T12:07:47.892Z,6.28
2023-01-18T12:08:52.543Z,5.45
2023-01-18T12:09:56.496Z,5.82
2023-01-18T12:11:15.967Z,5.95
2023-01-18T12:13:08.431Z,6.10
2023-01-18T12:14:43.929Z,6.00
2023-01-18T12:15:54.638Z,5.28
2023-01-18T12:17:45.815Z,6.00
2023-01-18T12:19:10.870Z,7.60
2023-01-18T12:20:20.078Z,6.07
2023-01-18T12:21:42.345Z,6.47
2023-01-18T12:22:46.795Z,6.60
2023-01-18T12:24:27.229Z,5.57
2023-01-18T12:26:11.805Z,6.15
2023-01-18T12:27:28.245Z,6.13
2023-01-18T12:28:57.415Z,5.82
2023-01-18T12:30:02.099Z,6.32
2023-01-18T12:31:13.480Z,6.47
2023-01-18T12:32:36.283Z,6.47
2023-01-18T12:33:44.262Z,6.10
2023-01-18T12:34:58.492Z,5.05
2023-01-18T12:36:18.686Z,6.30
2023-01-18T12:37:38.391Z,6.40
2023-01-18T12:38:54.603Z,7.15
2023-01-18T12:39:59.320Z,6.72
2023-01-18T12:41:12.714Z,7.18
2023-01-18T12:42:26.461Z,6.85
2023-01-18T12:43:49.732Z,8.43
2023-01-18T12:45:17.926Z,7.25
2023-01-18T12:46:28.733Z,11.68
2023-01-18T12:47:39.712Z,6.90
2023-01-18T12:49:04.757Z,6.82
2023-01-18T12:50:24.558Z,6.95
2023-01-18T12:51:32.445Z,6.25
2023-01-18T12:52:44.611Z,7.25
2023-01-18T12:53:53.777Z,6.65
2023-01-18T12:55:00.134Z,6.72
2023-01-18T12:56:10.389Z,6.00
2023-01-18T12:57:15.025Z,6.30
2023-01-18T12:58:22.470Z,6.45
2023-01-18T12:59:30.624Z,5.65
2023-01-18T13:00:44.081Z,4.80
2023-01-18T13:02:05.744Z,5.50
2023-01-18T13:03:13.779Z,5.50
2023-01-18T13:04:25.443Z,6.00
2023-01-18T13:05:35.549Z,5.97
2023-01-18T13:06:39.539Z,5.07
2023-01-18T13:07:53.326Z,5.50
2023-01-18T13:09:03.383Z,5.25
2023-01-18T13:10:13.828Z,5.25
2023-01-18T13:11:17.383Z,5.30
2023-01-18T13:12:19.814Z,5.30
2023-01-18T13:13:27.524Z,5.60
2023-01-18T13:15:01.703Z,4.97
2023-01-18T13:16:06.466Z,5.47
2023-01-18T13:17:48.622Z,5.00
2023-01-18T13:19:00.195Z,5.18
2023-01-18T13:20:11.022Z,5.45
2023-01-18T13:21:12.704Z,4.93
2023-01-18T13:22:22.172Z,5.00
2023-01-18T13:23:54.129Z,5.00
2023-01-18T13:25:26.652Z,5.50
2023-01-18T13:26:33.852Z,4.72
2023-01-18T13:27:37.815Z,4.82
2023-01-18T13:28:39.999Z,4.53
2023-01-18T13:29:43.861Z,5.43
2023-01-18T13:31:00.758Z,4.43
2023-01-18T13:32:04.163Z,5.60
2023-01-18T13:33:14.833Z,4.97
2023-01-18T13:34:22.722Z,5.85
2023-01-18T13:35:33.294Z,5.10
2023-01-18T13:36:46.346Z,5.70
2023-01-18T13:37:56.280Z,4.93
2023-01-18T13:39:06.976Z,5.68
2023-01-18T13:40:32.974Z,6.38
2023-01-18T13:41:34.738Z,5.80
2023-01-18T13:42:41.179Z,5.05
2023-01-18T13:43:42.841Z,5.43
2023-01-18T13:44:47.178Z,6.45
2023-01-18T13:46:02.705Z,6.60
2023-01-18T13:47:39.583Z,5.82
2023-01-18T13:49:00.250Z,6.72
2023-01-18T13:50:02.265Z,6.78
2023-01-18T13:51:04.154Z,6.65
2023-01-18T13:52:32.457Z,5.70
2023-01-18T13:53:52.397Z,6.70
2023-01-18T13:55:01.245Z,6.95
2023-01-18T13:56:03.993Z,6.63
2023-01-18T13:57:05.636Z,6.93
2023-01-18T13:58:24.946Z,7.25
2023-01-18T13:59:33.952Z,8.15
2023-01-18T14:00:36.602Z,6.22
2023-01-18T14:01:44.116Z,5.28
2023-01-18T14:02:52.158Z,5.82
2023-01-18T14:03:55.357Z,6.93
2023-01-18T14:05:25.266Z,6.22
2023-01-18T14:06:35.385Z,6.07
2023-01-18T14:07:44.594Z,5.60
2023-01-18T14:08:53.457Z,5.70
2023-01-18T14:10:03.583Z,5.97
2023-01-18T14:11:11.128Z,7.20
2023-01-18T14:12:14.864Z,6.78
2023-01-18T14:13:18.206Z,5.30
2023-01-18T14:14:20.416Z,5.50
2023-01-18T14:15:39.579Z,5.50
2023-01-18T14:16:53.789Z,5.18
2023-01-18T14:17:59.224Z,4.95
2023-01-18T14:19:01.538Z,6.38
2023-01-18T14:20:35.833Z,5.85
2023-01-18T14:21:49.427Z,5.70
2023-01-18T14:23:17.127Z,11.00
2023-01-18T14:24:44.963Z,8.50
2023-01-18T14:25:55.638Z,7.90
2023-01-18T14:26:59.344Z,6.10
2023-01-18T14:28:11.416Z,5.90
2023-01-18T14:29:34.748Z,5.60
2023-01-18T14:30:38.790Z,6.25
2023-01-18T14:31:49.176Z,5.43
2023-01-18T14:32:59.690Z,5.32
2023-01-18T14:34:30.143Z,5.60
2023-01-18T14:35:32.290Z,5.78
2023-01-18T14:36:36.082Z,6.40
2023-01-18T14:37:38.034Z,5.20
2023-01-18T14:38:41.193Z,6.82